Spirit of Dana Point — WDA5763 — position and weather

sailwx.info

Track history (hours):
 
Tides and Currents Weather Stations Pressure Air Temp Water Temp Dewpoint Dewpoint Depression Visibility Wind Speed Wind Dir Waves Ship Positions

Spirit of Dana Point (United States)

Ship's website: http://www.ocean-institute.org/general-information/about-spirit-dana-point

Owner: OCEAN INSTITUTE, DANA POINT, CA. More information available from US FCC via Universal Licensing System and Coast Guard Vessel Documentation Center.

Last reported at 2018-Oct-22 15:15 UTC. Time now 2018-Dec-12 04:49 UTC.
Position N 32°39' W 117°07'.
Warning: this ship's position is 50 days out of date.

Length 37 m; draft 3.3 m.

Type: Ship. MMSI: 366823550.

Date/timePositionNaut miles runAvg speedWind from/ knotsBaromVisibWave heightAir tempDewpointWater temp
2018-Oct-22 15:15N 32°39' W 117°07'0 1.7
2018-Oct-22 15:01N 32°40' W 117°08'0 5.0
2018-Oct-22 14:59N 32°40' W 117°08'5 5.1
2018-Oct-22 14:00N 32°43' W 117°12'2 4.9
2018-Oct-22 13:30N 32°41' W 117°14'2 5.2
2018-Oct-22 13:03N 32°39' W 117°14'0 4.9
2018-Oct-22 13:01N 32°39' W 117°14'2 4.2
2018-Oct-22 12:30N 32°37' W 117°16'2 4.1
2018-Oct-22 12:03N 32°38' W 117°18'0 5.2
2018-Oct-22 12:00N 32°38' W 117°18'3 5.2
2018-Oct-22 11:30N 32°40' W 117°20'2 5.3
2018-Oct-22 11:03N 32°42' W 117°21'0 5.3
2018-Oct-22 11:00N 32°43' W 117°21'3 5.3
2018-Oct-22 10:30N 32°45' W 117°22'2 5.4
2018-Oct-22 10:03N 32°47' W 117°23'0 5.4
2018-Oct-22 10:00N 32°48' W 117°24'3 5.3
2018-Oct-22 09:30N 32°50' W 117°25'2 5.3
2018-Oct-22 09:03N 32°53' W 117°25'0 5.5
2018-Oct-22 09:00N 32°53' W 117°25'3 5.2
2018-Oct-22 08:30N 32°55' W 117°26'2 5.1
2018-Oct-22 08:03N 32°57' W 117°27'0 5.1
2018-Oct-22 08:00N 32°58' W 117°27'3 6.3
2018-Oct-22 07:30N 33°01' W 117°28'3 6.4
2018-Oct-22 07:03N 33°03' W 117°30'0 6.5
2018-Oct-22 07:00N 33°04' W 117°30'3 6.4
2018-Oct-22 06:30N 33°07' W 117°31'3 6.3
2018-Oct-22 06:03N 33°09' W 117°32'0 6.2
2018-Oct-22 06:00N 33°10' W 117°32'3 6.4
2018-Oct-22 05:30N 33°13' W 117°33'3 6.4
2018-Oct-22 05:03N 33°15' W 117°35'0 6.6
2018-Oct-22 05:00N 33°16' W 117°35'3 6.4
2018-Oct-22 04:30N 33°19' W 117°36'3 6.6
2018-Oct-22 04:03N 33°21' W 117°38'0 6.8
2018-Oct-22 04:00N 33°22' W 117°38'3 6.4
2018-Oct-22 03:30N 33°24' W 117°40'3 6.1
2018-Oct-22 03:03N 33°27' W 117°41'0 4.8
2018-Oct-22 03:00N 33°27' W 117°41'1 2.1
2018-Oct-22 02:30N 33°28' W 117°42'0 0.1
2018-Oct-22 02:04N 33°28' W 117°42'0 0.0
2018-Oct-22 02:00N 33°28' W 117°42'  
2018-Oct-18 15:44N 33°28' W 117°42'0 0.0
2018-Oct-18 15:30N 33°28' W 117°42'0 0.0
2018-Oct-18 15:03N 33°28' W 117°42'0 0.0
2018-Oct-18 15:00N 33°28' W 117°42'0 0.0
2018-Oct-18 14:30N 33°28' W 117°42'0 0.0
2018-Oct-18 14:00N 33°28' W 117°42'0 0.0
2018-Oct-18 13:30N 33°28' W 117°42'0 0.0
2018-Oct-18 13:03N 33°28' W 117°42'0 0.0
2018-Oct-18 13:00N 33°28' W 117°42'0 0.0
2018-Oct-18 12:30N 33°28' W 117°42'0 0.0
2018-Oct-18 12:03N 33°28' W 117°42'0 0.0
2018-Oct-18 12:00N 33°28' W 117°42'0 0.0
2018-Oct-18 11:30N 33°28' W 117°42'0 0.0
2018-Oct-18 11:03N 33°28' W 117°42'0 0.1
2018-Oct-18 11:00N 33°28' W 117°42'0 0.0
2018-Oct-18 10:30N 33°28' W 117°42'0 0.0
2018-Oct-18 10:03N 33°28' W 117°42'0 0.1
2018-Oct-18 10:00N 33°28' W 117°42'0 0.0
2018-Oct-18 09:30N 33°28' W 117°42'0 0.0
2018-Oct-18 09:03N 33°28' W 117°42'0 0.0
2018-Oct-18 09:00N 33°28' W 117°42'0 0.0
2018-Oct-18 08:30N 33°28' W 117°42'0 0.0
2018-Oct-18 08:03N 33°28' W 117°42'0 0.0
2018-Oct-18 08:00N 33°28' W 117°42'0 0.0
2018-Oct-18 07:30N 33°28' W 117°42'0 0.0
2018-Oct-18 07:03N 33°28' W 117°42'0 0.0
2018-Oct-18 07:00N 33°28' W 117°42'0 0.0
2018-Oct-18 06:30N 33°28' W 117°42'0 0.0
2018-Oct-18 06:03N 33°28' W 117°42'0 0.0
2018-Oct-18 06:00N 33°28' W 117°42'0 0.0
2018-Oct-18 05:30N 33°28' W 117°42'0 0.0
2018-Oct-18 05:03N 33°28' W 117°42'0 0.0
2018-Oct-18 05:00N 33°28' W 117°42'0 0.0
2018-Oct-18 04:30N 33°28' W 117°42'0 0.0
2018-Oct-18 04:03N 33°28' W 117°42'0 0.0
2018-Oct-18 04:00N 33°28' W 117°42'0 0.0
2018-Oct-18 03:30N 33°28' W 117°42'0 0.0
2018-Oct-18 03:03N 33°28' W 117°42'0 0.0
2018-Oct-18 03:00N 33°28' W 117°42'0 0.0
2018-Oct-18 02:30N 33°28' W 117°42'0 0.0
2018-Oct-18 02:03N 33°28' W 117°42'0 0.0
2018-Oct-18 02:00N 33°28' W 117°42'0 0.0
2018-Oct-18 01:30N 33°28' W 117°42'0 0.0
2018-Oct-18 01:03N 33°28' W 117°42'0 0.1
2018-Oct-18 01:00N 33°28' W 117°42'0 0.0
2018-Oct-18 00:30N 33°28' W 117°42'0 0.0
2018-Oct-18 00:03N 33°28' W 117°42'0 0.0
2018-Oct-18 00:00N 33°28' W 117°42'0 0.0
2018-Oct-17 23:30N 33°28' W 117°42'0 0.0
2018-Oct-17 23:03N 33°28' W 117°42'0 0.0
2018-Oct-17 23:00N 33°28' W 117°42'0 0.0
2018-Oct-17 22:30N 33°28' W 117°42'0 0.0
2018-Oct-17 22:03N 33°28' W 117°42'0 0.0
2018-Oct-17 22:00N 33°28' W 117°42'0 0.0
2018-Oct-17 21:30N 33°28' W 117°42'0 0.0
2018-Oct-17 21:03N 33°28' W 117°42'0 0.0
2018-Oct-17 21:00N 33°28' W 117°42'0 0.0
2018-Oct-17 20:30N 33°28' W 117°42'0 0.0
2018-Oct-17 20:03N 33°28' W 117°42'0 0.0
2018-Oct-17 20:00N 33°28' W 117°42'0 0.0
2018-Oct-17 19:30N 33°28' W 117°42'0 0.0
2018-Oct-17 19:03N 33°28' W 117°42'0 0.0
2018-Oct-17 19:00N 33°28' W 117°42'0 0.0
2018-Oct-17 18:30N 33°28' W 117°42'0 0.0
2018-Oct-17 18:03N 33°28' W 117°42'0 0.1
2018-Oct-17 18:00N 33°28' W 117°42'0 0.0
2018-Oct-17 17:30N 33°28' W 117°42'0 0.0
2018-Oct-17 17:03N 33°28' W 117°42'0 0.0
2018-Oct-17 17:00N 33°28' W 117°42'0 0.0
2018-Oct-17 16:30N 33°28' W 117°42'0 0.0
2018-Oct-17 16:03N 33°28' W 117°42'0 0.0
2018-Oct-17 16:00N 33°28' W 117°42'0 0.0
2018-Oct-17 15:30N 33°28' W 117°42'0 0.0
2018-Oct-17 15:03N 33°28' W 117°42'0 0.1
2018-Oct-17 15:00N 33°28' W 117°42'0 0.0
2018-Oct-17 14:03N 33°28' W 117°42'0 0.0
2018-Oct-17 13:30N 33°28' W 117°42'0 0.0
2018-Oct-17 13:03N 33°28' W 117°42'0 0.1
2018-Oct-17 13:00N 33°28' W 117°42'0 0.0
2018-Oct-17 12:30N 33°28' W 117°42'0 0.0
2018-Oct-17 12:03N 33°28' W 117°42'0 0.1
2018-Oct-17 12:00N 33°28' W 117°42'0 0.0
2018-Oct-17 11:30N 33°28' W 117°42'0 0.0
2018-Oct-17 11:03N 33°28' W 117°42'0 0.0
2018-Oct-17 11:00N 33°28' W 117°42'0 0.0
2018-Oct-17 10:30N 33°28' W 117°42'0 0.0
2018-Oct-17 10:03N 33°28' W 117°42'0 0.0
2018-Oct-17 10:00N 33°28' W 117°42'0 0.0
2018-Oct-17 09:30N 33°28' W 117°42'0 0.0
2018-Oct-17 09:03N 33°28' W 117°42'0 0.1
2018-Oct-17 09:00N 33°28' W 117°42'0 0.0
2018-Oct-17 08:30N 33°28' W 117°42'0 0.0
2018-Oct-17 08:03N 33°28' W 117°42'0 0.0
2018-Oct-17 08:00N 33°28' W 117°42'0 0.0
2018-Oct-17 07:30N 33°28' W 117°42'0 0.0
2018-Oct-17 07:03N 33°28' W 117°42'0 0.0
2018-Oct-17 07:00N 33°28' W 117°42'0 0.0
2018-Oct-17 06:30N 33°28' W 117°42'0 0.0
2018-Oct-17 06:03N 33°28' W 117°42'0 0.0
2018-Oct-17 06:00N 33°28' W 117°42'0 0.0
2018-Oct-17 05:30N 33°28' W 117°42'0 0.0
2018-Oct-17 05:03N 33°28' W 117°42'0 0.0
2018-Oct-17 05:00N 33°28' W 117°42'0 0.0
2018-Oct-17 04:30N 33°28' W 117°42'0 0.0
2018-Oct-17 04:03N 33°28' W 117°42'0 0.0
2018-Oct-17 04:00N 33°28' W 117°42'0 0.0
2018-Oct-17 03:30N 33°28' W 117°42'0 0.0
2018-Oct-17 03:03N 33°28' W 117°42'0 0.0
2018-Oct-17 03:00N 33°28' W 117°42'0 0.0
2018-Oct-17 02:30N 33°28' W 117°42'0 0.0
2018-Oct-17 02:03N 33°28' W 117°42'0 0.0
2018-Oct-17 02:00N 33°28' W 117°42'0 0.0
2018-Oct-17 01:30N 33°28' W 117°42'0 0.0
2018-Oct-17 01:03N 33°28' W 117°42'0 0.0
2018-Oct-17 01:00N 33°28' W 117°42'0 0.0
2018-Oct-17 00:30N 33°28' W 117°42'0 0.0
2018-Oct-17 00:03N 33°28' W 117°42'0 0.0
2018-Oct-17 00:00N 33°28' W 117°42'0 0.0
2018-Oct-16 23:30N 33°28' W 117°42'0 0.0
2018-Oct-16 23:03N 33°28' W 117°42'0 0.0
2018-Oct-16 23:00N 33°28' W 117°42'0 0.0
2018-Oct-16 22:30N 33°28' W 117°42'0 0.0
2018-Oct-16 22:03N 33°28' W 117°42'0 0.0
2018-Oct-16 22:00N 33°28' W 117°42'0 0.0
2018-Oct-16 21:30N 33°28' W 117°42'0 0.0
2018-Oct-16 21:03N 33°28' W 117°42'0 0.0
2018-Oct-16 21:00N 33°28' W 117°42'0 0.0
2018-Oct-16 20:31N 33°28' W 117°42'0 0.0
2018-Oct-16 20:03N 33°28' W 117°42'0 0.0
2018-Oct-16 20:00N 33°28' W 117°42'0 0.0
2018-Oct-16 19:30N 33°28' W 117°42'0 0.0
2018-Oct-16 19:03N 33°28' W 117°42'0 0.1
2018-Oct-16 19:00N 33°28' W 117°42'0 0.0
2018-Oct-16 18:30N 33°28' W 117°42'0 0.0
2018-Oct-16 18:03N 33°28' W 117°42'0 0.0
2018-Oct-16 18:00N 33°28' W 117°42'0 0.0
2018-Oct-16 17:30N 33°28' W 117°42'0 0.0
2018-Oct-16 17:03N 33°28' W 117°42'0 0.0
2018-Oct-16 17:00N 33°28' W 117°42'0 0.0
2018-Oct-16 16:30N 33°28' W 117°42'0 0.0
2018-Oct-16 16:03N 33°28' W 117°42'0 0.0
2018-Oct-16 16:00N 33°28' W 117°42'1 1.2
2018-Oct-16 15:30N 33°27' W 117°42'0 0.6
2018-Oct-16 15:04N 33°28' W 117°41'0 0.0
2018-Oct-16 15:01N 33°28' W 117°41'0 0.0
2018-Oct-16 14:30N 33°28' W 117°41'1 1.6
2018-Oct-16 14:01N 33°27' W 117°42'3 5.8
2018-Oct-16 13:31N 33°28' W 117°46'3 6.0
2018-Oct-16 13:03N 33°29' W 117°48'0 5.8
2018-Oct-16 13:01N 33°29' W 117°49'3 6.0
2018-Oct-16 12:30N 33°31' W 117°52'3 6.3
2018-Oct-16 12:04N 33°32' W 117°55'0 5.6
2018-Oct-16 12:00N 33°32' W 117°55'3 6.2
2018-Oct-16 11:30N 33°33' W 117°59'3 6.0
2018-Oct-16 11:04N 33°34' W 118°02'0 6.1
2018-Oct-16 11:00N 33°34' W 118°02'3 5.9
2018-Oct-16 10:31N 33°35' W 118°05'3 6.2
2018-Oct-16 10:03N 33°36' W 118°09'0 5.4
2018-Oct-16 10:00N 33°36' W 118°09'3 6.1
2018-Oct-16 09:30N 33°37' W 118°12'3 6.0
2018-Oct-16 09:03N 33°38' W 118°15'0 5.2
2018-Oct-16 09:00N 33°38' W 118°16'3 6.0
2018-Oct-16 08:30N 33°39' W 118°19'3 5.9
2018-Oct-16 08:01N 33°41' W 118°22'1 6.1
2018-Oct-16 07:54N 33°41' W 118°23'3 6.3
2018-Oct-16 07:28N 33°43' W 118°25'3 6.1
2018-Oct-16 07:03N 33°44' W 118°28'0 6.7
2018-Oct-16 07:00N 33°44' W 118°28'3 6.1
2018-Oct-16 06:30N 33°46' W 118°31'3 6.1
2018-Oct-16 06:03N 33°48' W 118°34'0 5.4
2018-Oct-16 06:00N 33°48' W 118°34'3 6.0
2018-Oct-16 05:30N 33°50' W 118°37'3 5.7
2018-Oct-16 05:04N 33°51' W 118°39'0 6.1
2018-Oct-16 05:01N 33°51' W 118°40'3 5.7
2018-Oct-16 04:31N 33°53' W 118°42'3 5.8
2018-Oct-16 04:03N 33°54' W 118°45'0 5.7
2018-Oct-16 04:00N 33°55' W 118°45'4 5.9
2018-Oct-16 03:24N 33°56' W 118°49'2 5.8
2018-Oct-16 03:03N 33°58' W 118°51'0 5.6
2018-Oct-16 03:00N 33°58' W 118°51'3 5.7
2018-Oct-16 02:27N 33°59' W 118°55'3 5.9
2018-Oct-16 02:02N 34°00' W 118°57'0 6.4
2018-Oct-16 02:00N 34°00' W 118°58'3 6.5
2018-Oct-16 01:29N 34°02' W 119°01'3 6.4
2018-Oct-16 01:00N 34°03' W 119°05'3 5.7
2018-Oct-16 00:30N 34°04' W 119°08'3 5.6
2018-Oct-16 00:02N 34°05' W 119°11'0 7.1
2018-Oct-16 00:00N 34°05' W 119°11'3 5.5
2018-Oct-15 23:30N 34°07' W 119°14'3 5.4
2018-Oct-15 23:02N 34°08' W 119°16'0 6.0
2018-Oct-15 22:58N 34°08' W 119°17'3 5.5
2018-Oct-15 22:29N 34°10' W 119°20'0 1.1
2018-Oct-15 22:03N 34°09' W 119°19'0 2.6
2018-Oct-15 21:59N 34°09' W 119°19'2 3.8
2018-Oct-15 21:30N 34°10' W 119°21'2 4.7
2018-Oct-15 21:03N 34°11' W 119°23'0 5.4
2018-Oct-15 21:00N 34°12' W 119°23'3 4.9
2018-Oct-15 20:30N 34°14' W 119°25'2 5.0
2018-Oct-15 20:03N 34°15' W 119°27'0 5.0
2018-Oct-15 20:00N 34°15' W 119°27'3 5.4
2018-Oct-15 19:30N 34°17' W 119°30'3 5.6
2018-Oct-15 19:02N 34°18' W 119°32'0 5.4
2018-Oct-15 18:59N 34°19' W 119°33'3 5.3
2018-Oct-15 18:29N 34°20' W 119°35'3 5.7
2018-Oct-15 18:01N 34°22' W 119°38'0 5.8
2018-Oct-15 17:59N 34°22' W 119°38'3 5.9
2018-Oct-15 17:30N 34°24' W 119°41'1 1.8
2018-Oct-15 17:00N 34°24' W 119°41'0 0.0
2018-Oct-15 16:30N 34°24' W 119°41'0 0.0
2018-Oct-15 16:03N 34°24' W 119°41'0 0.0
2018-Oct-15 16:00N 34°24' W 119°41'  
Track history (hours):
 
Tides and Currents Weather Stations Pressure Air Temp Water Temp Dewpoint Dewpoint Depression Visibility Wind Speed Wind Dir Waves Ship Positions

Spirit of Dana Point (United States)

Ship's website: http://www.ocean-institute.org/general-information/about-spirit-dana-point

Owner: OCEAN INSTITUTE, DANA POINT, CA. More information available from US FCC via Universal Licensing System and Coast Guard Vessel Documentation Center.

Last reported at 2018-Oct-22 15:15 UTC. Time now 2018-Dec-12 04:49 UTC.
Position N 32°39' W 117°07'.
Warning: this ship's position is 50 days out of date.

Length 37 m; draft 3.3 m.

Type: Ship. MMSI: 366823550.

Date/timePositionNaut miles runAvg speedWind from/ knotsBaromVisibWave heightAir tempDewpointWater temp
2018-Oct-22 15:15N 32°39' W 117°07'0 1.7
2018-Oct-22 15:01N 32°40' W 117°08'0 5.0
2018-Oct-22 14:59N 32°40' W 117°08'5 5.1
2018-Oct-22 14:00N 32°43' W 117°12'2 4.9
2018-Oct-22 13:30N 32°41' W 117°14'2 5.2
2018-Oct-22 13:03N 32°39' W 117°14'0 4.9
2018-Oct-22 13:01N 32°39' W 117°14'2 4.2
2018-Oct-22 12:30N 32°37' W 117°16'2 4.1
2018-Oct-22 12:03N 32°38' W 117°18'0 5.2
2018-Oct-22 12:00N 32°38' W 117°18'3 5.2
2018-Oct-22 11:30N 32°40' W 117°20'2 5.3
2018-Oct-22 11:03N 32°42' W 117°21'0 5.3
2018-Oct-22 11:00N 32°43' W 117°21'3 5.3
2018-Oct-22 10:30N 32°45' W 117°22'2 5.4
2018-Oct-22 10:03N 32°47' W 117°23'0 5.4
2018-Oct-22 10:00N 32°48' W 117°24'3 5.3
2018-Oct-22 09:30N 32°50' W 117°25'2 5.3
2018-Oct-22 09:03N 32°53' W 117°25'0 5.5
2018-Oct-22 09:00N 32°53' W 117°25'3 5.2
2018-Oct-22 08:30N 32°55' W 117°26'2 5.1
2018-Oct-22 08:03N 32°57' W 117°27'0 5.1
2018-Oct-22 08:00N 32°58' W 117°27'3 6.3
2018-Oct-22 07:30N 33°01' W 117°28'3 6.4
2018-Oct-22 07:03N 33°03' W 117°30'0 6.5
2018-Oct-22 07:00N 33°04' W 117°30'3 6.4
2018-Oct-22 06:30N 33°07' W 117°31'3 6.3
2018-Oct-22 06:03N 33°09' W 117°32'0 6.2
2018-Oct-22 06:00N 33°10' W 117°32'3 6.4
2018-Oct-22 05:30N 33°13' W 117°33'3 6.4
2018-Oct-22 05:03N 33°15' W 117°35'0 6.6
2018-Oct-22 05:00N 33°16' W 117°35'3 6.4
2018-Oct-22 04:30N 33°19' W 117°36'3 6.6
2018-Oct-22 04:03N 33°21' W 117°38'0 6.8
2018-Oct-22 04:00N 33°22' W 117°38'3 6.4
2018-Oct-22 03:30N 33°24' W 117°40'3 6.1
2018-Oct-22 03:03N 33°27' W 117°41'0 4.8
2018-Oct-22 03:00N 33°27' W 117°41'1 2.1
2018-Oct-22 02:30N 33°28' W 117°42'0 0.1
2018-Oct-22 02:04N 33°28' W 117°42'0 0.0
2018-Oct-22 02:00N 33°28' W 117°42'  
2018-Oct-18 15:44N 33°28' W 117°42'0 0.0
2018-Oct-18 15:30N 33°28' W 117°42'0 0.0
2018-Oct-18 15:03N 33°28' W 117°42'0 0.0
2018-Oct-18 15:00N 33°28' W 117°42'0 0.0
2018-Oct-18 14:30N 33°28' W 117°42'0 0.0
2018-Oct-18 14:00N 33°28' W 117°42'0 0.0
2018-Oct-18 13:30N 33°28' W 117°42'0 0.0
2018-Oct-18 13:03N 33°28' W 117°42'0 0.0
2018-Oct-18 13:00N 33°28' W 117°42'0 0.0
2018-Oct-18 12:30N 33°28' W 117°42'0 0.0
2018-Oct-18 12:03N 33°28' W 117°42'0 0.0
2018-Oct-18 12:00N 33°28' W 117°42'0 0.0
2018-Oct-18 11:30N 33°28' W 117°42'0 0.0
2018-Oct-18 11:03N 33°28' W 117°42'0 0.1
2018-Oct-18 11:00N 33°28' W 117°42'0 0.0
2018-Oct-18 10:30N 33°28' W 117°42'0 0.0
2018-Oct-18 10:03N 33°28' W 117°42'0 0.1
2018-Oct-18 10:00N 33°28' W 117°42'0 0.0
2018-Oct-18 09:30N 33°28' W 117°42'0 0.0
2018-Oct-18 09:03N 33°28' W 117°42'0 0.0
2018-Oct-18 09:00N 33°28' W 117°42'0 0.0
2018-Oct-18 08:30N 33°28' W 117°42'0 0.0
2018-Oct-18 08:03N 33°28' W 117°42'0 0.0
2018-Oct-18 08:00N 33°28' W 117°42'0 0.0
2018-Oct-18 07:30N 33°28' W 117°42'0 0.0
2018-Oct-18 07:03N 33°28' W 117°42'0 0.0
2018-Oct-18 07:00N 33°28' W 117°42'0 0.0
2018-Oct-18 06:30N 33°28' W 117°42'0 0.0
2018-Oct-18 06:03N 33°28' W 117°42'0 0.0
2018-Oct-18 06:00N 33°28' W 117°42'0 0.0
2018-Oct-18 05:30N 33°28' W 117°42'0 0.0
2018-Oct-18 05:03N 33°28' W 117°42'0 0.0
2018-Oct-18 05:00N 33°28' W 117°42'0 0.0
2018-Oct-18 04:30N 33°28' W 117°42'0 0.0
2018-Oct-18 04:03N 33°28' W 117°42'0 0.0
2018-Oct-18 04:00N 33°28' W 117°42'0 0.0
2018-Oct-18 03:30N 33°28' W 117°42'0 0.0
2018-Oct-18 03:03N 33°28' W 117°42'0 0.0
2018-Oct-18 03:00N 33°28' W 117°42'0 0.0
2018-Oct-18 02:30N 33°28' W 117°42'0 0.0
2018-Oct-18 02:03N 33°28' W 117°42'0 0.0
2018-Oct-18 02:00N 33°28' W 117°42'0 0.0
2018-Oct-18 01:30N 33°28' W 117°42'0 0.0
2018-Oct-18 01:03N 33°28' W 117°42'0 0.1
2018-Oct-18 01:00N 33°28' W 117°42'0 0.0
2018-Oct-18 00:30N 33°28' W 117°42'0 0.0
2018-Oct-18 00:03N 33°28' W 117°42'0 0.0
2018-Oct-18 00:00N 33°28' W 117°42'0 0.0
2018-Oct-17 23:30N 33°28' W 117°42'0 0.0
2018-Oct-17 23:03N 33°28' W 117°42'0 0.0
2018-Oct-17 23:00N 33°28' W 117°42'0 0.0
2018-Oct-17 22:30N 33°28' W 117°42'0 0.0
2018-Oct-17 22:03N 33°28' W 117°42'0 0.0
2018-Oct-17 22:00N 33°28' W 117°42'0 0.0
2018-Oct-17 21:30N 33°28' W 117°42'0 0.0
2018-Oct-17 21:03N 33°28' W 117°42'0 0.0
2018-Oct-17 21:00N 33°28' W 117°42'0 0.0
2018-Oct-17 20:30N 33°28' W 117°42'0 0.0
2018-Oct-17 20:03N 33°28' W 117°42'0 0.0
2018-Oct-17 20:00N 33°28' W 117°42'0 0.0
2018-Oct-17 19:30N 33°28' W 117°42'0 0.0
2018-Oct-17 19:03N 33°28' W 117°42'0 0.0
2018-Oct-17 19:00N 33°28' W 117°42'0 0.0
2018-Oct-17 18:30N 33°28' W 117°42'0 0.0
2018-Oct-17 18:03N 33°28' W 117°42'0 0.1
2018-Oct-17 18:00N 33°28' W 117°42'0 0.0
2018-Oct-17 17:30N 33°28' W 117°42'0 0.0
2018-Oct-17 17:03N 33°28' W 117°42'0 0.0
2018-Oct-17 17:00N 33°28' W 117°42'0 0.0
2018-Oct-17 16:30N 33°28' W 117°42'0 0.0
2018-Oct-17 16:03N 33°28' W 117°42'0 0.0
2018-Oct-17 16:00N 33°28' W 117°42'0 0.0
2018-Oct-17 15:30N 33°28' W 117°42'0 0.0
2018-Oct-17 15:03N 33°28' W 117°42'0 0.1
2018-Oct-17 15:00N 33°28' W 117°42'0 0.0
2018-Oct-17 14:03N 33°28' W 117°42'0 0.0
2018-Oct-17 13:30N 33°28' W 117°42'0 0.0
2018-Oct-17 13:03N 33°28' W 117°42'0 0.1
2018-Oct-17 13:00N 33°28' W 117°42'0 0.0
2018-Oct-17 12:30N 33°28' W 117°42'0 0.0
2018-Oct-17 12:03N 33°28' W 117°42'0 0.1
2018-Oct-17 12:00N 33°28' W 117°42'0 0.0
2018-Oct-17 11:30N 33°28' W 117°42'0 0.0
2018-Oct-17 11:03N 33°28' W 117°42'0 0.0
2018-Oct-17 11:00N 33°28' W 117°42'0 0.0
2018-Oct-17 10:30N 33°28' W 117°42'0 0.0
2018-Oct-17 10:03N 33°28' W 117°42'0 0.0
2018-Oct-17 10:00N 33°28' W 117°42'0 0.0
2018-Oct-17 09:30N 33°28' W 117°42'0 0.0
2018-Oct-17 09:03N 33°28' W 117°42'0 0.1
2018-Oct-17 09:00N 33°28' W 117°42'0 0.0
2018-Oct-17 08:30N 33°28' W 117°42'0 0.0
2018-Oct-17 08:03N 33°28' W 117°42'0 0.0
2018-Oct-17 08:00N 33°28' W 117°42'0 0.0
2018-Oct-17 07:30N 33°28' W 117°42'0 0.0
2018-Oct-17 07:03N 33°28' W 117°42'0 0.0
2018-Oct-17 07:00N 33°28' W 117°42'0 0.0
2018-Oct-17 06:30N 33°28' W 117°42'0 0.0
2018-Oct-17 06:03N 33°28' W 117°42'0 0.0
2018-Oct-17 06:00N 33°28' W 117°42'0 0.0
2018-Oct-17 05:30N 33°28' W 117°42'0 0.0
2018-Oct-17 05:03N 33°28' W 117°42'0 0.0
2018-Oct-17 05:00N 33°28' W 117°42'0 0.0
2018-Oct-17 04:30N 33°28' W 117°42'0 0.0
2018-Oct-17 04:03N 33°28' W 117°42'0 0.0
2018-Oct-17 04:00N 33°28' W 117°42'0 0.0
2018-Oct-17 03:30N 33°28' W 117°42'0 0.0
2018-Oct-17 03:03N 33°28' W 117°42'0 0.0
2018-Oct-17 03:00N 33°28' W 117°42'0 0.0
2018-Oct-17 02:30N 33°28' W 117°42'0 0.0
2018-Oct-17 02:03N 33°28' W 117°42'0 0.0
2018-Oct-17 02:00N 33°28' W 117°42'0 0.0
2018-Oct-17 01:30N 33°28' W 117°42'0 0.0
2018-Oct-17 01:03N 33°28' W 117°42'0 0.0
2018-Oct-17 01:00N 33°28' W 117°42'0 0.0
2018-Oct-17 00:30N 33°28' W 117°42'0 0.0
2018-Oct-17 00:03N 33°28' W 117°42'0 0.0
2018-Oct-17 00:00N 33°28' W 117°42'0 0.0
2018-Oct-16 23:30N 33°28' W 117°42'0 0.0
2018-Oct-16 23:03N 33°28' W 117°42'0 0.0
2018-Oct-16 23:00N 33°28' W 117°42'0 0.0
2018-Oct-16 22:30N 33°28' W 117°42'0 0.0
2018-Oct-16 22:03N 33°28' W 117°42'0 0.0
2018-Oct-16 22:00N 33°28' W 117°42'0 0.0
2018-Oct-16 21:30N 33°28' W 117°42'0 0.0
2018-Oct-16 21:03N 33°28' W 117°42'0 0.0
2018-Oct-16 21:00N 33°28' W 117°42'0 0.0
2018-Oct-16 20:31N 33°28' W 117°42'0 0.0
2018-Oct-16 20:03N 33°28' W 117°42'0 0.0
2018-Oct-16 20:00N 33°28' W 117°42'0 0.0
2018-Oct-16 19:30N 33°28' W 117°42'0 0.0
2018-Oct-16 19:03N 33°28' W 117°42'0 0.1
2018-Oct-16 19:00N 33°28' W 117°42'0 0.0
2018-Oct-16 18:30N 33°28' W 117°42'0 0.0
2018-Oct-16 18:03N 33°28' W 117°42'0 0.0
2018-Oct-16 18:00N 33°28' W 117°42'0 0.0
2018-Oct-16 17:30N 33°28' W 117°42'0 0.0
2018-Oct-16 17:03N 33°28' W 117°42'0 0.0
2018-Oct-16 17:00N 33°28' W 117°42'0 0.0
2018-Oct-16 16:30N 33°28' W 117°42'0 0.0
2018-Oct-16 16:03N 33°28' W 117°42'0 0.0
2018-Oct-16 16:00N 33°28' W 117°42'1 1.2
2018-Oct-16 15:30N 33°27' W 117°42'0 0.6
2018-Oct-16 15:04N 33°28' W 117°41'0 0.0
2018-Oct-16 15:01N 33°28' W 117°41'0 0.0
2018-Oct-16 14:30N 33°28' W 117°41'1 1.6
2018-Oct-16 14:01N 33°27' W 117°42'3 5.8
2018-Oct-16 13:31N 33°28' W 117°46'3 6.0
2018-Oct-16 13:03N 33°29' W 117°48'0 5.8
2018-Oct-16 13:01N 33°29' W 117°49'3 6.0
2018-Oct-16 12:30N 33°31' W 117°52'3 6.3
2018-Oct-16 12:04N 33°32' W 117°55'0 5.6
2018-Oct-16 12:00N 33°32' W 117°55'3 6.2
2018-Oct-16 11:30N 33°33' W 117°59'3 6.0
2018-Oct-16 11:04N 33°34' W 118°02'0 6.1
2018-Oct-16 11:00N 33°34' W 118°02'3 5.9
2018-Oct-16 10:31N 33°35' W 118°05'3 6.2
2018-Oct-16 10:03N 33°36' W 118°09'0 5.4
2018-Oct-16 10:00N 33°36' W 118°09'3 6.1
2018-Oct-16 09:30N 33°37' W 118°12'3 6.0
2018-Oct-16 09:03N 33°38' W 118°15'0 5.2
2018-Oct-16 09:00N 33°38' W 118°16'3 6.0
2018-Oct-16 08:30N 33°39' W 118°19'3 5.9
2018-Oct-16 08:01N 33°41' W 118°22'1 6.1
2018-Oct-16 07:54N 33°41' W 118°23'3 6.3
2018-Oct-16 07:28N 33°43' W 118°25'3 6.1
2018-Oct-16 07:03N 33°44' W 118°28'0 6.7
2018-Oct-16 07:00N 33°44' W 118°28'3 6.1
2018-Oct-16 06:30N 33°46' W 118°31'3 6.1
2018-Oct-16 06:03N 33°48' W 118°34'0 5.4
2018-Oct-16 06:00N 33°48' W 118°34'3 6.0
2018-Oct-16 05:30N 33°50' W 118°37'3 5.7
2018-Oct-16 05:04N 33°51' W 118°39'0 6.1
2018-Oct-16 05:01N 33°51' W 118°40'3 5.7
2018-Oct-16 04:31N 33°53' W 118°42'3 5.8
2018-Oct-16 04:03N 33°54' W 118°45'0 5.7
2018-Oct-16 04:00N 33°55' W 118°45'4 5.9
2018-Oct-16 03:24N 33°56' W 118°49'2 5.8
2018-Oct-16 03:03N 33°58' W 118°51'0 5.6
2018-Oct-16 03:00N 33°58' W 118°51'3 5.7
2018-Oct-16 02:27N 33°59' W 118°55'3 5.9
2018-Oct-16 02:02N 34°00' W 118°57'0 6.4
2018-Oct-16 02:00N 34°00' W 118°58'3 6.5
2018-Oct-16 01:29N 34°02' W 119°01'3 6.4
2018-Oct-16 01:00N 34°03' W 119°05'3 5.7
2018-Oct-16 00:30N 34°04' W 119°08'3 5.6
2018-Oct-16 00:02N 34°05' W 119°11'0 7.1
2018-Oct-16 00:00N 34°05' W 119°11'3 5.5
2018-Oct-15 23:30N 34°07' W 119°14'3 5.4
2018-Oct-15 23:02N 34°08' W 119°16'0 6.0
2018-Oct-15 22:58N 34°08' W 119°17'3 5.5
2018-Oct-15 22:29N 34°10' W 119°20'0 1.1
2018-Oct-15 22:03N 34°09' W 119°19'0 2.6
2018-Oct-15 21:59N 34°09' W 119°19'2 3.8
2018-Oct-15 21:30N 34°10' W 119°21'2 4.7
2018-Oct-15 21:03N 34°11' W 119°23'0 5.4
2018-Oct-15 21:00N 34°12' W 119°23'3 4.9
2018-Oct-15 20:30N 34°14' W 119°25'2 5.0
2018-Oct-15 20:03N 34°15' W 119°27'0 5.0
2018-Oct-15 20:00N 34°15' W 119°27'3 5.4
2018-Oct-15 19:30N 34°17' W 119°30'3 5.6
2018-Oct-15 19:02N 34°18' W 119°32'0 5.4
2018-Oct-15 18:59N 34°19' W 119°33'3 5.3
2018-Oct-15 18:29N 34°20' W 119°35'3 5.7
2018-Oct-15 18:01N 34°22' W 119°38'0 5.8
2018-Oct-15 17:59N 34°22' W 119°38'3 5.9
2018-Oct-15 17:30N 34°24' W 119°41'1 1.8
2018-Oct-15 17:00N 34°24' W 119°41'0 0.0
2018-Oct-15 16:30N 34°24' W 119°41'0 0.0
2018-Oct-15 16:03N 34°24' W 119°41'0 0.0
2018-Oct-15 16:00N 34°24' W 119°41'  

Dump ship's entire track history